Terminal Aerodrome Forecast
Issued by NWS

Home | Current Version | Previous Version | Text Only | Print | Product List | Glossary On
Versions: 1 2 3 4 5 6 7 8 9 10 11 12 13 14 15 16 17 18 19 20 21 22 23 24 25 26
921
FTUS43 KGRR 191747
TAFBTL
TAF
KBTL 191747Z 1918/2018 14007KT P6SM SCT015
     FM192200 12005KT 6SM BR SCT015 BKN120
     FM200000 11004KT P6SM BKN008
     FM200300 10004KT 5SM BR VCSH OVC007
     FM200600 09005KT 3SM -RA BR OVC006
     FM201200 09006KT 2SM -RA BR OVC004=

USA.gov is the U.S. government's official web portal to all federal, state and local government web resources and services.